Latest Weather Observations for Leinster

IDW60801

Issued at 1:32 pm WST Wednesday 27 July 2016 (issued every 30 minutes, with the page automatically refreshed every 10 minutes)

About weather observations | Map of weather stations | Latest weather observations for WA | Other Formats
Station Details ID: 012314 Name: LEINSTER AERO Lat: -27.84 Lon: 120.70 Height: 497.0 m
Data from the previous 72 hours. | See also: Recent months at Leinster
Date/Time
WST
Temp
°C
App
Temp
°C
Dew
Point
°C
Rel
Hum
%
Delta-T
°C
Wind Press
QNH
hPa
Press
MSL
hPa
Rain since
9am
mm
Dir  Spd
km/h
Gust
km/h
Spd
kts
Gust
kts
27/01:30pm 16.9 12.1 2.5 38 6.7 NE 17 24 9 13 1025.1 1024.8 0.0
27/01:00pm 17.6 12.9 3.1 38 6.8 ENE 17 28 9 15 1025.4 1025.1 0.0
27/12:30pm 17.1 12.6 4.1 42 6.3 ENE 17 24 9 13 1025.6 1025.4 0.0
27/12:00pm 16.1 11.4 3.2 42 6.0 E 17 28 9 15 1026.2 1026.0 0.0
27/11:30am 15.9 11.0 4.0 45 5.7 ENE 19 28 10 15 1027.2 1026.9 0.0
27/11:00am 14.8 9.6 3.6 47 5.2 NE 20 28 11 15 1027.5 1027.3 0.0
27/10:30am 14.7 9.2 4.1 49 5.0 ENE 22 28 12 15 1027.9 1027.7 0.0
27/10:00am 13.0 7.5 4.2 55 4.1 ENE 22 28 12 15 1027.8 1027.6 0.0
27/09:30am 13.0 8.5 4.4 56 4.0 ENE 17 22 9 12 1028.5 1028.3 0.0
27/09:00am 10.8 6.3 4.0 63 3.1 ENE 17 22 9 12 1027.9 1027.7 0.0
27/08:30am 9.7 6.4 4.7 71 2.3 E 11 17 6 9 1027.9 1027.7 0.0
27/08:00am 7.5 4.6 4.8 83 1.2 ESE 9 11 5 6 1027.5 1027.3 0.0
27/07:30am 5.6 3.3 4.9 95 0.3 E 6 7 3 4 1027.3 1027.1 0.0
27/07:00am 3.6 0.8 3.2 97 0.2 E 7 9 4 5 1027.0 1026.7 0.0
27/06:30am 3.0 0.3 2.6 97 0.2 E 6 7 3 4 1027.1 1026.8 0.0
27/06:00am 3.5 0.7 3.1 97 0.2 ENE 7 9 4 5 1026.4 1026.2 0.0
27/05:30am 3.2 0.0 2.8 97 0.2 ENE 9 9 5 5 1026.2 1026.0 0.0
27/05:00am 2.8 0.4 2.4 97 0.2 ENE 4 9 2 5 1026.0 1025.8 0.0
27/04:30am 4.3 1.5 3.4 94 0.4 E 7 11 4 6 1026.0 1025.8 0.0
27/04:00am 3.1 1.2 2.7 97 0.2 E 2 9 1 5 1025.6 1025.4 0.0
27/03:30am 3.9 1.2 2.6 91 0.5 E 6 7 3 4 1025.7 1025.5 0.0
27/03:00am 5.4 2.6 2.9 84 1.1 ENE 7 9 4 5 1025.5 1025.3 0.0
27/02:30am 6.1 2.5 2.9 80 1.4 E 11 13 6 7 1025.6 1025.4 0.0
27/02:00am 6.5 2.9 3.1 79 1.5 E 11 15 6 8 1025.6 1025.4 0.0
27/01:30am 6.5 3.8 2.8 77 1.6 ESE 6 9 3 5 1026.0 1025.8 0.0
27/01:00am 7.1 4.3 3.0 75 1.8 ESE 7 9 4 5 1026.3 1026.1 0.0
27/12:30am 6.9 3.7 3.2 77 1.6 E 9 11 5 6 1026.6 1026.4 0.0
27/12:00am 5.8 3.0 3.1 83 1.1 E 7 9 4 5 1026.8 1026.5 0.0
 
Date/Time
WST
Temp
°C
App
Temp
°C
Dew
Point
°C
Rel
Hum
%
Delta-T
°C
Wind Press
QNH
hPa
Press
MSL
hPa
Rain since
9am
mm
Dir  Spd
km/h
Gust
km/h
Spd
kts
Gust
kts
26/11:30pm 7.1 4.3 3.0 75 1.8 E 7 9 4 5 1026.6 1026.4 0.0
26/11:00pm 7.8 5.1 2.9 71 2.1 E 6 7 3 4 1026.8 1026.5 0.0
26/10:30pm 8.3 5.5 3.2 70 2.2 ESE 7 9 4 5 1026.9 1026.6 0.0
26/10:00pm 7.5 4.9 3.0 73 1.9 SE 6 7 3 4 1026.5 1026.3 0.0
26/09:30pm 8.0 6.0 2.5 68 2.4 SE 2 6 1 3 1026.8 1026.5 0.0
26/09:00pm 9.8 6.5 2.4 60 3.2 SE 9 9 5 5 1026.6 1026.4 0.0
26/08:30pm 10.7 7.4 2.3 56 3.7 SE 9 11 5 6 1026.5 1026.3 0.0
26/08:00pm 11.2 8.2 2.0 53 4.0 SE 7 9 4 5 1026.4 1026.2 0.0
26/07:30pm 11.9 8.6 2.4 52 4.2 SSE 9 13 5 7 1026.1 1025.9 0.0
26/07:00pm 12.7 8.9 2.0 48 4.7 SSE 11 13 6 7 1025.9 1025.7 0.0
26/06:30pm 13.5 9.4 2.1 46 5.1 SSE 13 17 7 9 1025.6 1025.4 0.0
26/06:00pm 14.6 10.8 1.8 42 5.7 SSE 11 15 6 8 1025.3 1025.0 0.0
26/05:30pm 15.7 11.1 1.4 38 6.4 SSE 15 20 8 11 1025.1 1024.8 0.0
26/05:00pm 16.9 12.0 1.8 36 6.9 SSE 17 22 9 12 1024.8 1024.5 0.0
26/04:30pm 17.7 13.2 2.1 35 7.2 SSE 15 20 8 11 1024.5 1024.3 0.0
26/04:00pm 17.7 13.8 1.2 33 7.5 SE 11 19 6 10 1024.5 1024.3 0.0
26/03:30pm 18.0 14.2 1.5 33 7.6 S 11 17 6 9 1024.4 1024.2 0.0
26/03:00pm 17.6 13.3 0.7 32 7.6 SE 13 20 7 11 1024.4 1024.2 0.0
26/02:30pm 17.9 13.7 1.4 33 7.6 SSE 13 19 7 10 1024.8 1024.5 0.0
26/02:00pm 17.5 13.0 1.9 35 7.2 SE 15 20 8 11 1024.9 1024.6 0.0
26/01:30pm 17.1 12.5 1.5 35 7.1 SE 15 22 8 12 1025.1 1024.8 0.0
26/01:00pm 16.8 12.8 2.8 39 6.5 SE 13 24 7 13 1025.4 1025.1 0.0
26/12:30pm 15.9 12.3 3.0 42 6.0 SSE 11 17 6 9 1025.7 1025.5 0.0
26/12:00pm 15.8 11.8 2.6 41 6.1 SE 13 20 7 11 1026.3 1026.1 0.0
26/11:30am 15.0 10.6 2.9 44 5.6 SE 15 24 8 13 1026.6 1026.4 0.0
26/11:00am 14.5 10.6 3.3 47 5.2 SE 13 22 7 12 1027.0 1026.7 0.0
26/10:30am 13.9 10.9 4.2 52 4.6 ESE 9 15 5 8 1027.2 1026.9 0.0
26/10:00am 12.7 9.3 4.2 56 3.9 SE 11 17 6 9 1027.5 1027.3 0.0
26/09:30am 11.5 8.5 4.3 61 3.3 SE 9 15 5 8 1027.4 1027.2 0.0
26/09:00am 10.0 7.0 4.0 66 2.7 ESE 9 13 5 7 1027.0 1026.7 0.0
26/08:30am 8.1 5.4 3.9 75 1.9 SSE 7 9 4 5 1026.6 1026.4 0.0
26/08:00am 6.6 5.4 4.8 88 0.8 CALM 0 0 0 0 1026.1 1025.9 0.0
26/07:30am 3.8 2.4 3.5 98 0.1 CALM 0 2 0 1 1026.1 1025.9 0.0
26/07:00am 1.9 0.2 1.6 98 0.1 CALM 0 0 0 0 1025.7 1025.5 0.0
26/06:30am 1.7 -0.1 1.4 98 0.1 CALM 0 0 0 0 1025.7 1025.5 0.0
26/06:00am 2.1 0.0 1.7 97 0.2 SSW 2 6 1 3 1025.6 1025.4 0.0
26/05:30am 2.0 -1.1 1.6 97 0.2 SSW 7 9 4 5 1025.5 1025.3 0.0
26/05:00am 1.9 -1.2 1.5 97 0.2 SW 7 9 4 5 1025.3 1025.0 0.0
26/04:30am 2.3 0.6 1.9 97 0.2 CALM 0 0 0 0 1025.1 1024.8 0.0
26/04:00am 2.5 0.8 2.1 97 0.2 CALM 0 0 0 0 1024.8 1024.5 0.0
26/03:30am 2.9 1.3 2.3 96 0.2 CALM 0 2 0 1 1025.0 1024.7 0.0
26/03:00am 3.6 0.0 3.0 96 0.2 SSW 11 13 6 7 1025.0 1024.7 0.0
26/02:30am 4.0 2.5 3.0 93 0.4 CALM 0 0 0 0 1024.4 1024.2 0.0
26/02:00am 3.7 2.2 3.0 95 0.3 CALM 0 0 0 0 1024.8 1024.5 0.0
26/01:30am 3.8 1.6 3.2 96 0.3 WNW 4 6 2 3 1024.9 1024.6 0.0
26/01:00am 3.9 1.3 3.2 95 0.3 WSW 6 6 3 3 1025.1 1024.8 0.0
26/12:30am 4.1 2.6 3.1 93 0.4 CALM 0 0 0 0 1025.2 1024.9 0.0
26/12:00am 4.8 2.9 2.7 86 0.9 S 2 6 1 3 1025.2 1024.9 0.0
 
Date/Time
WST
Temp
°C
App
Temp
°C
Dew
Point
°C
Rel
Hum
%
Delta-T
°C
Wind Press
QNH
hPa
Press
MSL
hPa
Rain since
9am
mm
Dir  Spd
km/h
Gust
km/h
Spd
kts
Gust
kts
25/11:30pm 5.7 3.7 2.4 79 1.4 ESE 2 6 1 3 1025.2 1024.9 0.0
25/11:00pm 5.8 4.4 3.3 84 1.1 CALM 0 0 0 0 1025.2 1024.9 0.0
25/10:30pm 6.4 4.9 2.9 78 1.5 CALM 0 0 0 0 1025.3 1025.0 0.0
25/10:00pm 8.3 5.3 2.1 65 2.6 SSE 7 9 4 5 1025.2 1024.9 0.0
25/09:30pm 7.7 4.9 1.8 66 2.5 S 6 7 3 4 1025.1 1024.8 0.0
25/09:00pm 9.8 6.8 1.7 57 3.5 SE 7 9 4 5 1025.0 1024.7 0.0
25/08:30pm 10.6 6.8 1.9 55 3.8 SSE 11 15 6 8 1024.9 1024.6 0.0
25/08:00pm 10.6 6.9 2.2 56 3.7 SSE 11 13 6 7 1024.7 1024.4 0.0
25/07:30pm 11.2 7.5 2.2 54 4.0 SSE 11 13 6 7 1024.3 1024.1 0.0
25/07:00pm 12.0 7.9 2.5 52 4.2 SSE 13 17 7 9 1024.0 1023.8 0.0
25/06:30pm 12.7 8.7 2.8 51 4.5 SSE 13 19 7 10 1023.7 1023.4 0.0
25/06:00pm 13.5 10.1 1.8 45 5.2 S 9 15 5 8 1023.4 1023.1 0.0
25/05:30pm 14.9 10.6 0.7 38 6.3 SE 13 19 7 10 1023.1 1022.8 0.0
25/05:00pm 15.9 11.5 0.1 34 6.9 SE 13 17 7 9 1022.9 1022.6 0.0
25/04:30pm 16.4 11.9 -0.3 32 7.3 SE 13 19 7 10 1022.8 1022.5 0.0
25/04:00pm 16.6 11.7 -0.6 31 7.5 SSE 15 26 8 14 1022.8 1022.5 0.0
25/03:30pm 16.4 12.3 -0.3 32 7.3 SSE 11 19 6 10 1022.6 1022.3 0.0
25/03:00pm 16.2 11.7 -0.5 32 7.2 SE 13 26 7 14 1022.6 1022.3 0.0
25/02:30pm 16.6 11.6 -1.0 30 7.6 SE 15 22 8 12 1022.6 1022.3 0.0
25/02:00pm 16.1 11.7 0.3 34 6.9 SSE 13 22 7 12 1022.8 1022.5 0.0
25/01:30pm 15.6 12.0 0.6 36 6.6 SSW 9 13 5 7 1023.1 1022.8 0.0
25/01:00pm 15.3 11.3 0.3 36 6.5 SE 11 17 6 9 1023.5 1023.2 0.0
25/12:30pm 15.7 12.3 1.8 39 6.3 ENE 9 15 5 8 1024.0 1023.8 0.0
25/12:00pm 14.9 11.1 1.8 41 5.9 ESE 11 17 6 9 1024.7 1024.4 0.0
25/11:30am 13.9 10.4 1.2 42 5.6 E 9 17 5 9 1025.1 1024.8 0.0
25/11:00am 13.3 9.8 1.0 43 5.3 E 9 15 5 8 1025.5 1025.3 0.0
25/10:30am 13.6 9.8 1.9 45 5.2 ENE 11 19 6 10 1025.7 1025.5 0.0
25/10:00am 11.8 8.4 2.0 51 4.3 E 9 13 5 7 1025.9 1025.7 0.0
25/09:30am 10.6 7.5 3.4 61 3.2 E 9 13 5 7 1026.1 1025.9 0.0
25/09:00am 8.9 5.8 3.5 69 2.4 E 9 13 5 7 1026.1 1025.9 0.0
25/08:30am 7.8 4.6 3.3 73 2.0 E 9 13 5 7 1025.8 1025.6 0.0
25/08:00am 5.5 4.0 5.1 97 0.2 SE 2 6 1 3 1025.5 1025.3 0.0
25/07:30am 3.0 0.1 2.7 98 0.1 ENE 7 7 4 4 1025.2 1024.9 0.0
25/07:00am 1.1 -1.1 0.8 98 0.1 SE 2 7 1 4 1024.9 1024.6 0.0
25/06:30am 0.7 -1.2 0.4 98 0.1 CALM 0 0 0 0 1024.5 1024.3 0.0
25/06:00am 0.9 -1.0 0.6 98 0.1 CALM 0 0 0 0 1024.3 1024.1 0.0
25/05:30am 1.7 -0.1 1.4 98 0.1 CALM 0 0 0 0 1024.0 1023.8 0.0
25/05:00am 1.0 -0.9 0.7 98 0.1 CALM 0 0 0 0 1023.8 1023.6 0.0
25/04:30am 1.1 -0.8 0.8 98 0.1 CALM 0 0 0 0 1023.7 1023.4 0.0
25/04:00am 1.3 -0.5 1.0 98 0.1 CALM 0 2 0 1 1023.9 1023.7 0.0
25/03:30am 1.7 -1.2 1.3 97 0.2 SSE 6 7 3 4 1024.0 1023.8 0.0
25/03:00am 2.0 0.3 1.6 97 0.2 CALM 0 0 0 0 1024.1 1023.9 0.0
25/02:30am 2.4 0.0 2.0 97 0.2 ESE 4 6 2 3 1024.2 1024.0 0.0
25/02:00am 2.9 0.1 2.0 94 0.4 ESE 6 7 3 4 1024.2 1024.0 0.0
25/01:30am 4.9 2.1 2.9 87 0.8 ESE 7 7 4 4 1024.3 1024.1 0.0
25/01:00am 5.3 2.5 3.2 86 0.9 SE 7 9 4 5 1024.3 1024.1 0.0
25/12:30am 5.3 2.1 3.3 87 0.9 ESE 9 11 5 6 1024.4 1024.2 0.0
25/12:00am 5.5 2.8 3.7 88 0.8 ESE 7 9 4 5 1024.5 1024.3 0.0
 
Date/Time
WST
Temp
°C
App
Temp
°C
Dew
Point
°C
Rel
Hum
%
Delta-T
°C
Wind Press
QNH
hPa
Press
MSL
hPa
Rain since
9am
mm
Dir  Spd
km/h
Gust
km/h
Spd
kts
Gust
kts
24/11:30pm 5.5 2.5 4.0 90 0.7 SE 9 13 5 7 1024.8 1024.5 0.0
24/11:00pm 5.3 2.7 4.0 91 0.6 SE 7 9 4 5 1024.8 1024.5 0.0
24/10:30pm 5.6 2.9 3.9 89 0.7 SE 7 9 4 5 1025.0 1024.7 0.0
24/10:00pm 6.3 3.3 4.3 87 0.9 SE 9 11 5 6 1024.8 1024.5 0.0
24/09:30pm 6.0 3.8 5.4 96 0.3 ESE 6 7 3 4 1024.9 1024.6 0.0
24/09:00pm 6.2 5.1 5.0 92 0.5 CALM 0 0 0 0 1024.9 1024.6 0.0
24/08:30pm 6.1 4.9 4.7 91 0.6 CALM 0 0 0 0 1025.0 1024.7 0.0
24/08:00pm 7.4 5.0 4.5 82 1.3 ENE 6 7 3 4 1024.8 1024.5 0.0
24/07:30pm 8.9 5.9 3.9 71 2.2 ENE 9 11 5 6 1024.5 1024.3 0.0
24/07:00pm 9.5 6.5 4.3 70 2.4 NE 9 9 5 5 1024.4 1024.2 0.0
24/06:30pm 10.3 7.3 4.0 65 2.9 NNE 9 9 5 5 1024.0 1023.8 0.0
24/06:00pm 11.0 8.0 4.0 62 3.2 NNE 9 13 5 7 1023.6 1023.3 0.0
24/05:30pm 11.8 8.4 3.8 58 3.7 NE 11 13 6 7 1023.3 1023.0 0.0
24/05:00pm 12.6 9.1 3.6 54 4.1 NE 11 17 6 9 1023.1 1022.8 0.0
24/04:30pm 13.5 9.6 3.6 51 4.6 NE 13 17 7 9 1022.8 1022.5 0.0
24/04:00pm 13.7 10.1 3.2 49 4.8 ENE 11 17 6 9 1022.8 1022.5 0.0
24/03:30pm 13.8 10.5 2.4 46 5.2 E 9 13 5 7 1022.7 1022.4 0.0
24/03:00pm 13.6 9.9 2.2 46 5.1 ESE 11 17 6 9 1022.7 1022.4 0.0
24/02:30pm 14.2 10.4 3.7 49 4.9 ESE 13 20 7 11 1022.9 1022.6 0.0
24/02:00pm 13.8 10.2 3.0 48 4.9 E 11 19 6 10 1023.0 1022.7 0.0

Other Formats:

Comma delimited format used in spreadsheet applications
http://www.bom.gov.au/fwo/IDW60801/IDW60801.95448.axf

JavaScript Object Notation format (JSON) in row-major order
http://www.bom.gov.au/fwo/IDW60801/IDW60801.95448.json